sensor_id;sensor_type;location;lat;lon;timestamp;P1;durP1;ratioP1;P2;durP2;ratioP2
7931;SDS011;4011;49.424;10.894;2024-02-21T00:00:01;6.78;;;3.03;;
7931;SDS011;4011;49.424;10.894;2024-02-21T00:05:23;4.97;;;2.80;;
7931;SDS011;4011;49.424;10.894;2024-02-21T00:10:44;4.75;;;2.72;;
7931;SDS011;4011;49.424;10.894;2024-02-21T00:16:08;5.03;;;2.70;;
7931;SDS011;4011;49.424;10.894;2024-02-21T00:21:30;4.70;;;2.53;;
7931;SDS011;4011;49.424;10.894;2024-02-21T00:26:53;4.82;;;2.40;;
7931;SDS011;4011;49.424;10.894;2024-02-21T00:32:16;5.07;;;2.35;;
7931;SDS011;4011;49.424;10.894;2024-02-21T00:37:37;5.80;;;2.70;;
7931;SDS011;4011;49.424;10.894;2024-02-21T00:42:59;5.28;;;2.40;;
7931;SDS011;4011;49.424;10.894;2024-02-21T00:48:22;6.18;;;2.50;;
7931;SDS011;4011;49.424;10.894;2024-02-21T00:53:43;5.65;;;2.70;;
7931;SDS011;4011;49.424;10.894;2024-02-21T00:59:04;4.97;;;2.40;;
7931;SDS011;4011;49.424;10.894;2024-02-21T01:04:27;5.68;;;2.22;;
7931;SDS011;4011;49.424;10.894;2024-02-21T01:09:49;4.38;;;2.50;;
7931;SDS011;4011;49.424;10.894;2024-02-21T01:15:11;4.18;;;2.35;;
7931;SDS011;4011;49.424;10.894;2024-02-21T01:20:34;4.78;;;2.40;;
7931;SDS011;4011;49.424;10.894;2024-02-21T01:25:56;5.95;;;2.35;;
7931;SDS011;4011;49.424;10.894;2024-02-21T01:31:17;5.13;;;2.25;;
7931;SDS011;4011;49.424;10.894;2024-02-21T01:36:40;6.53;;;2.72;;
7931;SDS011;4011;49.424;10.894;2024-02-21T01:42:02;5.43;;;2.25;;
7931;SDS011;4011;49.424;10.894;2024-02-21T01:47:23;5.85;;;2.33;;
7931;SDS011;4011;49.424;10.894;2024-02-21T01:52:46;5.93;;;2.28;;
7931;SDS011;4011;49.424;10.894;2024-02-21T01:58:09;3.95;;;2.20;;
7931;SDS011;4011;49.424;10.894;2024-02-21T02:03:31;4.00;;;2.20;;
7931;SDS011;4011;49.424;10.894;2024-02-21T02:08:54;5.20;;;2.40;;
7931;SDS011;4011;49.424;10.894;2024-02-21T02:14:15;5.07;;;2.40;;
7931;SDS011;4011;49.424;10.894;2024-02-21T02:19:37;4.22;;;2.13;;
7931;SDS011;4011;49.424;10.894;2024-02-21T02:25:00;5.40;;;2.30;;
7931;SDS011;4011;49.424;10.894;2024-02-21T02:30:22;5.13;;;2.28;;
7931;SDS011;4011;49.424;10.894;2024-02-21T02:35:43;5.18;;;2.40;;
7931;SDS011;4011;49.424;10.894;2024-02-21T02:41:06;5.05;;;2.10;;
7931;SDS011;4011;49.424;10.894;2024-02-21T02:46:27;4.43;;;2.20;;
7931;SDS011;4011;49.424;10.894;2024-02-21T02:51:49;5.25;;;2.40;;
7931;SDS011;4011;49.424;10.894;2024-02-21T02:57:11;4.82;;;2.40;;
7931;SDS011;4011;49.424;10.894;2024-02-21T03:02:33;4.43;;;2.30;;
7931;SDS011;4011;49.424;10.894;2024-02-21T03:07:55;5.28;;;2.40;;
7931;SDS011;4011;49.424;10.894;2024-02-21T03:13:18;4.63;;;2.13;;
7931;SDS011;4011;49.424;10.894;2024-02-21T03:18:39;4.10;;;2.22;;
7931;SDS011;4011;49.424;10.894;2024-02-21T03:24:03;5.70;;;2.17;;
7931;SDS011;4011;49.424;10.894;2024-02-21T03:29:26;4.22;;;1.90;;
7931;SDS011;4011;49.424;10.894;2024-02-21T03:34:48;5.40;;;2.28;;
7931;SDS011;4011;49.424;10.894;2024-02-21T03:40:10;4.45;;;2.20;;
7931;SDS011;4011;49.424;10.894;2024-02-21T03:45:32;4.97;;;2.10;;
7931;SDS011;4011;49.424;10.894;2024-02-21T03:50:54;4.43;;;2.00;;
7931;SDS011;4011;49.424;10.894;2024-02-21T03:56:17;4.60;;;2.00;;
7931;SDS011;4011;49.424;10.894;2024-02-21T04:01:41;4.43;;;2.30;;
7931;SDS011;4011;49.424;10.894;2024-02-21T04:07:04;4.65;;;2.30;;
7931;SDS011;4011;49.424;10.894;2024-02-21T04:12:26;5.20;;;2.22;;
7931;SDS011;4011;49.424;10.894;2024-02-21T04:17:49;4.60;;;2.22;;
7931;SDS011;4011;49.424;10.894;2024-02-21T04:23:11;4.32;;;2.00;;
7931;SDS011;4011;49.424;10.894;2024-02-21T04:28:32;4.82;;;2.30;;
7931;SDS011;4011;49.424;10.894;2024-02-21T04:33:55;4.55;;;2.30;;
7931;SDS011;4011;49.424;10.894;2024-02-21T04:39:16;4.57;;;2.60;;
7931;SDS011;4011;49.424;10.894;2024-02-21T04:44:38;4.43;;;2.30;;
7931;SDS011;4011;49.424;10.894;2024-02-21T04:50:00;5.00;;;2.20;;
7931;SDS011;4011;49.424;10.894;2024-02-21T04:55:24;4.53;;;2.03;;
7931;SDS011;4011;49.424;10.894;2024-02-21T05:00:46;4.45;;;2.00;;
7931;SDS011;4011;49.424;10.894;2024-02-21T05:06:11;4.10;;;2.00;;
7931;SDS011;4011;49.424;10.894;2024-02-21T05:11:33;4.30;;;2.20;;
7931;SDS011;4011;49.424;10.894;2024-02-21T05:16:55;3.63;;;2.10;;
7931;SDS011;4011;49.424;10.894;2024-02-21T05:22:18;4.18;;;1.90;;
7931;SDS011;4011;49.424;10.894;2024-02-21T05:27:40;3.92;;;1.80;;
7931;SDS011;4011;49.424;10.894;2024-02-21T05:33:03;4.57;;;2.10;;
7931;SDS011;4011;49.424;10.894;2024-02-21T05:38:26;5.60;;;2.20;;
7931;SDS011;4011;49.424;10.894;2024-02-21T05:43:48;5.60;;;2.10;;
7931;SDS011;4011;49.424;10.894;2024-02-21T05:49:10;4.80;;;2.00;;
7931;SDS011;4011;49.424;10.894;2024-02-21T05:54:38;4.25;;;2.00;;
7931;SDS011;4011;49.424;10.894;2024-02-21T06:00:02;4.45;;;2.05;;
7931;SDS011;4011;49.424;10.894;2024-02-21T06:05:25;4.13;;;2.03;;
7931;SDS011;4011;49.424;10.894;2024-02-21T06:10:48;5.30;;;2.30;;
7931;SDS011;4011;49.424;10.894;2024-02-21T06:16:15;3.75;;;2.00;;
7931;SDS011;4011;49.424;10.894;2024-02-21T06:21:37;5.53;;;2.05;;
7931;SDS011;4011;49.424;10.894;2024-02-21T06:27:00;5.55;;;2.47;;
7931;SDS011;4011;49.424;10.894;2024-02-21T06:32:23;5.65;;;2.00;;
7931;SDS011;4011;49.424;10.894;2024-02-21T06:37:45;4.35;;;2.20;;
7931;SDS011;4011;49.424;10.894;2024-02-21T06:43:12;5.70;;;2.28;;
7931;SDS011;4011;49.424;10.894;2024-02-21T06:48:34;5.00;;;2.15;;
7931;SDS011;4011;49.424;10.894;2024-02-21T06:53:56;4.97;;;2.08;;
7931;SDS011;4011;49.424;10.894;2024-02-21T06:59:19;5.22;;;2.15;;
7931;SDS011;4011;49.424;10.894;2024-02-21T07:04:41;4.97;;;2.45;;
7931;SDS011;4011;49.424;10.894;2024-02-21T07:10:06;4.22;;;1.95;;
7931;SDS011;4011;49.424;10.894;2024-02-21T07:15:33;4.40;;;2.15;;
7931;SDS011;4011;49.424;10.894;2024-02-21T07:21:04;4.95;;;2.00;;
7931;SDS011;4011;49.424;10.894;2024-02-21T07:26:26;3.75;;;2.00;;
7931;SDS011;4011;49.424;10.894;2024-02-21T07:31:50;3.88;;;2.03;;
7931;SDS011;4011;49.424;10.894;2024-02-21T07:37:15;4.55;;;2.05;;
7931;SDS011;4011;49.424;10.894;2024-02-21T07:42:37;4.82;;;2.15;;
7931;SDS011;4011;49.424;10.894;2024-02-21T07:48:02;4.72;;;2.25;;
7931;SDS011;4011;49.424;10.894;2024-02-21T07:53:24;5.18;;;2.22;;
7931;SDS011;4011;49.424;10.894;2024-02-21T07:58:47;3.90;;;2.10;;
7931;SDS011;4011;49.424;10.894;2024-02-21T08:04:11;4.60;;;2.03;;
7931;SDS011;4011;49.424;10.894;2024-02-21T08:09:36;5.18;;;2.05;;
7931;SDS011;4011;49.424;10.894;2024-02-21T08:14:58;4.82;;;2.20;;
7931;SDS011;4011;49.424;10.894;2024-02-21T08:20:22;4.00;;;2.10;;
7931;SDS011;4011;49.424;10.894;2024-02-21T08:25:47;5.30;;;2.30;;
7931;SDS011;4011;49.424;10.894;2024-02-21T08:31:10;6.55;;;2.05;;
7931;SDS011;4011;49.424;10.894;2024-02-21T08:36:34;4.72;;;1.90;;
7931;SDS011;4011;49.424;10.894;2024-02-21T08:41:57;5.20;;;2.30;;
7931;SDS011;4011;49.424;10.894;2024-02-21T08:47:18;4.40;;;2.15;;
7931;SDS011;4011;49.424;10.894;2024-02-21T08:52:41;4.30;;;2.03;;
7931;SDS011;4011;49.424;10.894;2024-02-21T08:58:05;4.05;;;1.98;;
7931;SDS011;4011;49.424;10.894;2024-02-21T09:03:30;4.05;;;2.08;;
7931;SDS011;4011;49.424;10.894;2024-02-21T09:08:53;5.25;;;2.20;;
7931;SDS011;4011;49.424;10.894;2024-02-21T09:14:17;4.05;;;2.00;;
7931;SDS011;4011;49.424;10.894;2024-02-21T09:19:40;4.28;;;2.08;;
7931;SDS011;4011;49.424;10.894;2024-02-21T09:25:04;4.18;;;2.13;;
7931;SDS011;4011;49.424;10.894;2024-02-21T09:30:26;4.60;;;2.20;;
7931;SDS011;4011;49.424;10.894;2024-02-21T09:35:48;5.57;;;2.22;;
7931;SDS011;4011;49.424;10.894;2024-02-21T09:41:16;5.30;;;2.20;;
7931;SDS011;4011;49.424;10.894;2024-02-21T09:46:40;4.20;;;2.05;;
7931;SDS011;4011;49.424;10.894;2024-02-21T09:52:06;4.07;;;2.00;;
7931;SDS011;4011;49.424;10.894;2024-02-21T09:57:30;4.88;;;2.25;;
7931;SDS011;4011;49.424;10.894;2024-02-21T10:02:53;4.32;;;2.10;;
7931;SDS011;4011;49.424;10.894;2024-02-21T10:08:18;4.88;;;2.00;;
7931;SDS011;4011;49.424;10.894;2024-02-21T10:13:42;5.10;;;2.17;;
7931;SDS011;4011;49.424;10.894;2024-02-21T10:19:04;4.47;;;2.08;;
7931;SDS011;4011;49.424;10.894;2024-02-21T10:24:26;4.05;;;1.98;;
7931;SDS011;4011;49.424;10.894;2024-02-21T10:29:50;4.18;;;2.03;;
7931;SDS011;4011;49.424;10.894;2024-02-21T10:35:12;5.03;;;1.95;;
7931;SDS011;4011;49.424;10.894;2024-02-21T10:40:33;4.50;;;2.05;;
7931;SDS011;4011;49.424;10.894;2024-02-21T10:45:56;4.88;;;2.00;;
7931;SDS011;4011;49.424;10.894;2024-02-21T10:51:19;3.72;;;1.80;;
7931;SDS011;4011;49.424;10.894;2024-02-21T10:56:43;6.78;;;2.20;;
7931;SDS011;4011;49.424;10.894;2024-02-21T11:02:06;3.65;;;1.80;;
7931;SDS011;4011;49.424;10.894;2024-02-21T11:07:29;3.78;;;1.83;;
7931;SDS011;4011;49.424;10.894;2024-02-21T11:12:52;3.28;;;1.65;;
7931;SDS011;4011;49.424;10.894;2024-02-21T11:18:24;4.88;;;2.08;;
7931;SDS011;4011;49.424;10.894;2024-02-21T11:23:54;3.45;;;1.90;;
7931;SDS011;4011;49.424;10.894;2024-02-21T11:29:15;3.67;;;1.80;;
7931;SDS011;4011;49.424;10.894;2024-02-21T11:34:54;3.33;;;1.80;;
7931;SDS011;4011;49.424;10.894;2024-02-21T11:40:15;4.60;;;1.70;;
7931;SDS011;4011;49.424;10.894;2024-02-21T11:45:37;4.30;;;1.90;;
7931;SDS011;4011;49.424;10.894;2024-02-21T11:51:00;3.58;;;1.65;;
7931;SDS011;4011;49.424;10.894;2024-02-21T11:56:23;3.45;;;1.73;;
7931;SDS011;4011;49.424;10.894;2024-02-21T12:01:46;3.85;;;1.80;;
7931;SDS011;4011;49.424;10.894;2024-02-21T12:07:08;4.03;;;1.70;;
7931;SDS011;4011;49.424;10.894;2024-02-21T12:12:30;4.45;;;1.73;;
7931;SDS011;4011;49.424;10.894;2024-02-21T12:17:56;3.58;;;1.67;;
7931;SDS011;4011;49.424;10.894;2024-02-21T12:23:19;3.05;;;1.70;;
7931;SDS011;4011;49.424;10.894;2024-02-21T12:28:40;4.00;;;1.67;;
7931;SDS011;4011;49.424;10.894;2024-02-21T12:34:02;3.95;;;1.60;;
7931;SDS011;4011;49.424;10.894;2024-02-21T12:39:25;4.55;;;1.90;;
7931;SDS011;4011;49.424;10.894;2024-02-21T12:44:48;4.40;;;1.83;;
7931;SDS011;4011;49.424;10.894;2024-02-21T12:50:10;4.47;;;1.83;;
7931;SDS011;4011;49.424;10.894;2024-02-21T12:55:33;4.50;;;1.80;;
7931;SDS011;4011;49.424;10.894;2024-02-21T13:00:54;4.15;;;1.83;;
7931;SDS011;4011;49.424;10.894;2024-02-21T13:06:16;3.65;;;2.05;;
7931;SDS011;4011;49.424;10.894;2024-02-21T13:11:40;2.67;;;1.60;;
7931;SDS011;4011;49.424;10.894;2024-02-21T13:17:02;3.25;;;1.63;;
7931;SDS011;4011;49.424;10.894;2024-02-21T13:22:23;3.97;;;1.90;;
7931;SDS011;4011;49.424;10.894;2024-02-21T13:27:48;4.25;;;1.65;;
7931;SDS011;4011;49.424;10.894;2024-02-21T13:33:09;3.60;;;1.67;;
7931;SDS011;4011;49.424;10.894;2024-02-21T13:38:30;4.05;;;1.70;;
7931;SDS011;4011;49.424;10.894;2024-02-21T13:43:53;3.55;;;1.60;;
7931;SDS011;4011;49.424;10.894;2024-02-21T13:49:15;4.40;;;1.83;;
7931;SDS011;4011;49.424;10.894;2024-02-21T13:54:36;3.13;;;1.33;;
7931;SDS011;4011;49.424;10.894;2024-02-21T13:59:59;3.83;;;1.50;;
7931;SDS011;4011;49.424;10.894;2024-02-21T14:05:21;3.40;;;1.60;;
7931;SDS011;4011;49.424;10.894;2024-02-21T14:10:42;3.92;;;1.73;;
7931;SDS011;4011;49.424;10.894;2024-02-21T14:16:10;3.17;;;1.50;;
7931;SDS011;4011;49.424;10.894;2024-02-21T14:21:33;3.30;;;1.60;;
7931;SDS011;4011;49.424;10.894;2024-02-21T14:26:57;5.88;;;1.60;;
7931;SDS011;4011;49.424;10.894;2024-02-21T14:32:22;3.17;;;1.60;;
7931;SDS011;4011;49.424;10.894;2024-02-21T14:37:44;3.00;;;1.40;;
7931;SDS011;4011;49.424;10.894;2024-02-21T14:43:05;4.50;;;1.55;;
7931;SDS011;4011;49.424;10.894;2024-02-21T14:48:29;2.53;;;1.50;;
7931;SDS011;4011;49.424;10.894;2024-02-21T14:53:51;4.18;;;1.73;;
7931;SDS011;4011;49.424;10.894;2024-02-21T14:59:15;4.38;;;1.60;;
7931;SDS011;4011;49.424;10.894;2024-02-21T15:04:38;3.33;;;1.50;;
7931;SDS011;4011;49.424;10.894;2024-02-21T15:09:59;3.47;;;1.60;;
7931;SDS011;4011;49.424;10.894;2024-02-21T15:15:21;3.47;;;1.70;;
7931;SDS011;4011;49.424;10.894;2024-02-21T15:20:44;3.38;;;1.77;;
7931;SDS011;4011;49.424;10.894;2024-02-21T15:26:06;6.07;;;2.60;;
7931;SDS011;4011;49.424;10.894;2024-02-21T15:31:27;6.15;;;2.30;;
7931;SDS011;4011;49.424;10.894;2024-02-21T15:36:52;7.88;;;2.80;;
7931;SDS011;4011;49.424;10.894;2024-02-21T15:42:13;9.57;;;2.55;;
7931;SDS011;4011;49.424;10.894;2024-02-21T15:47:35;8.20;;;3.10;;
7931;SDS011;4011;49.424;10.894;2024-02-21T15:52:58;6.13;;;2.50;;
7931;SDS011;4011;49.424;10.894;2024-02-21T15:58:20;5.85;;;2.50;;
7931;SDS011;4011;49.424;10.894;2024-02-21T16:03:42;6.40;;;2.38;;
7931;SDS011;4011;49.424;10.894;2024-02-21T16:09:07;4.78;;;2.22;;
7931;SDS011;4011;49.424;10.894;2024-02-21T16:14:29;5.75;;;2.20;;
7931;SDS011;4011;49.424;10.894;2024-02-21T16:19:50;5.38;;;2.47;;
7931;SDS011;4011;49.424;10.894;2024-02-21T16:25:13;5.22;;;2.20;;
7931;SDS011;4011;49.424;10.894;2024-02-21T16:30:35;4.93;;;2.20;;
7931;SDS011;4011;49.424;10.894;2024-02-21T16:35:57;5.93;;;2.40;;
7931;SDS011;4011;49.424;10.894;2024-02-21T16:41:20;5.65;;;2.28;;
7931;SDS011;4011;49.424;10.894;2024-02-21T16:46:47;5.57;;;2.40;;
7931;SDS011;4011;49.424;10.894;2024-02-21T16:52:09;6.32;;;2.38;;
7931;SDS011;4011;49.424;10.894;2024-02-21T16:57:32;4.85;;;2.30;;
7931;SDS011;4011;49.424;10.894;2024-02-21T17:02:55;5.57;;;2.03;;
7931;SDS011;4011;49.424;10.894;2024-02-21T17:08:16;4.18;;;2.03;;
7931;SDS011;4011;49.424;10.894;2024-02-21T17:13:39;4.70;;;2.20;;
7931;SDS011;4011;49.424;10.894;2024-02-21T17:19:01;4.97;;;2.00;;
7931;SDS011;4011;49.424;10.894;2024-02-21T17:24:25;5.47;;;2.25;;
7931;SDS011;4011;49.424;10.894;2024-02-21T17:29:48;4.43;;;2.10;;
7931;SDS011;4011;49.424;10.894;2024-02-21T17:35:10;3.92;;;2.13;;
7931;SDS011;4011;49.424;10.894;2024-02-21T17:40:31;5.25;;;2.22;;
7931;SDS011;4011;49.424;10.894;2024-02-21T17:46:01;4.38;;;2.00;;
7931;SDS011;4011;49.424;10.894;2024-02-21T17:51:23;4.88;;;1.90;;
7931;SDS011;4011;49.424;10.894;2024-02-21T17:56:45;3.55;;;2.00;;
7931;SDS011;4011;49.424;10.894;2024-02-21T18:02:07;5.18;;;2.10;;
7931;SDS011;4011;49.424;10.894;2024-02-21T18:07:29;4.28;;;1.80;;
7931;SDS011;4011;49.424;10.894;2024-02-21T18:12:51;4.55;;;2.20;;
7931;SDS011;4011;49.424;10.894;2024-02-21T18:18:14;4.25;;;2.08;;
7931;SDS011;4011;49.424;10.894;2024-02-21T18:23:35;3.95;;;1.88;;
7931;SDS011;4011;49.424;10.894;2024-02-21T18:28:57;3.50;;;2.05;;
7931;SDS011;4011;49.424;10.894;2024-02-21T18:34:20;5.18;;;2.10;;
7931;SDS011;4011;49.424;10.894;2024-02-21T18:39:42;4.28;;;1.90;;
7931;SDS011;4011;49.424;10.894;2024-02-21T18:45:04;4.07;;;2.00;;
7931;SDS011;4011;49.424;10.894;2024-02-21T18:50:27;3.40;;;1.92;;
7931;SDS011;4011;49.424;10.894;2024-02-21T18:55:49;4.25;;;1.80;;
7931;SDS011;4011;49.424;10.894;2024-02-21T19:01:11;3.80;;;2.20;;
7931;SDS011;4011;49.424;10.894;2024-02-21T19:06:33;4.43;;;2.00;;
7931;SDS011;4011;49.424;10.894;2024-02-21T19:11:59;4.55;;;2.13;;
7931;SDS011;4011;49.424;10.894;2024-02-21T19:17:21;4.70;;;1.83;;
7931;SDS011;4011;49.424;10.894;2024-02-21T19:22:44;3.92;;;1.95;;
7931;SDS011;4011;49.424;10.894;2024-02-21T19:28:17;4.47;;;1.80;;
7931;SDS011;4011;49.424;10.894;2024-02-21T19:33:42;3.70;;;1.90;;
7931;SDS011;4011;49.424;10.894;2024-02-21T19:39:08;3.58;;;1.95;;
7931;SDS011;4011;49.424;10.894;2024-02-21T19:44:33;3.38;;;1.98;;
7931;SDS011;4011;49.424;10.894;2024-02-21T19:50:06;3.90;;;1.95;;
7931;SDS011;4011;49.424;10.894;2024-02-21T19:55:30;3.88;;;2.08;;
7931;SDS011;4011;49.424;10.894;2024-02-21T20:00:56;4.22;;;2.00;;
7931;SDS011;4011;49.424;10.894;2024-02-21T20:06:18;3.30;;;1.80;;
7931;SDS011;4011;49.424;10.894;2024-02-21T20:11:41;4.03;;;2.03;;
7931;SDS011;4011;49.424;10.894;2024-02-21T20:17:10;3.80;;;1.95;;
7931;SDS011;4011;49.424;10.894;2024-02-21T20:22:32;3.55;;;1.80;;
7931;SDS011;4011;49.424;10.894;2024-02-21T20:27:58;3.42;;;1.88;;
7931;SDS011;4011;49.424;10.894;2024-02-21T20:33:20;3.75;;;2.00;;
7931;SDS011;4011;49.424;10.894;2024-02-21T20:38:43;4.53;;;2.00;;
7931;SDS011;4011;49.424;10.894;2024-02-21T20:44:11;3.80;;;2.00;;
7931;SDS011;4011;49.424;10.894;2024-02-21T20:49:32;4.05;;;2.20;;
7931;SDS011;4011;49.424;10.894;2024-02-21T20:54:56;4.22;;;2.13;;
7931;SDS011;4011;49.424;10.894;2024-02-21T21:00:22;3.67;;;2.13;;
7931;SDS011;4011;49.424;10.894;2024-02-21T21:05:44;3.63;;;2.05;;
7931;SDS011;4011;49.424;10.894;2024-02-21T21:11:06;4.10;;;2.00;;
7931;SDS011;4011;49.424;10.894;2024-02-21T21:16:30;4.63;;;2.38;;
7931;SDS011;4011;49.424;10.894;2024-02-21T21:21:53;4.78;;;2.50;;
7931;SDS011;4011;49.424;10.894;2024-02-21T21:27:17;4.50;;;2.50;;
7931;SDS011;4011;49.424;10.894;2024-02-21T21:32:41;4.85;;;2.60;;
7931;SDS011;4011;49.424;10.894;2024-02-21T21:38:02;5.45;;;3.25;;
7931;SDS011;4011;49.424;10.894;2024-02-21T21:43:24;6.38;;;3.30;;
7931;SDS011;4011;49.424;10.894;2024-02-21T21:48:47;6.72;;;3.33;;
7931;SDS011;4011;49.424;10.894;2024-02-21T21:54:18;5.93;;;3.38;;
7931;SDS011;4011;49.424;10.894;2024-02-21T21:59:40;6.35;;;3.72;;
7931;SDS011;4011;49.424;10.894;2024-02-21T22:05:03;6.68;;;3.40;;
7931;SDS011;4011;49.424;10.894;2024-02-21T22:10:25;7.07;;;3.63;;
7931;SDS011;4011;49.424;10.894;2024-02-21T22:15:47;6.68;;;3.40;;
7931;SDS011;4011;49.424;10.894;2024-02-21T22:21:10;7.20;;;3.63;;
7931;SDS011;4011;49.424;10.894;2024-02-21T22:26:31;6.95;;;3.70;;
7931;SDS011;4011;49.424;10.894;2024-02-21T22:31:53;6.55;;;3.70;;
7931;SDS011;4011;49.424;10.894;2024-02-21T22:37:15;6.35;;;3.60;;
7931;SDS011;4011;49.424;10.894;2024-02-21T22:42:40;6.55;;;3.30;;
7931;SDS011;4011;49.424;10.894;2024-02-21T22:48:01;6.20;;;3.35;;
7931;SDS011;4011;49.424;10.894;2024-02-21T22:59:13;6.53;;;3.35;;
7931;SDS011;4011;49.424;10.894;2024-02-21T23:04:35;6.53;;;3.20;;
7931;SDS011;4011;49.424;10.894;2024-02-21T23:09:56;5.78;;;3.25;;
7931;SDS011;4011;49.424;10.894;2024-02-21T23:15:19;6.88;;;3.15;;
7931;SDS011;4011;49.424;10.894;2024-02-21T23:20:41;6.47;;;3.30;;
7931;SDS011;4011;49.424;10.894;2024-02-21T23:26:03;5.78;;;3.15;;
7931;SDS011;4011;49.424;10.894;2024-02-21T23:31:27;6.43;;;3.15;;
7931;SDS011;4011;49.424;10.894;2024-02-21T23:36:51;5.50;;;3.03;;
7931;SDS011;4011;49.424;10.894;2024-02-21T23:42:13;5.72;;;2.97;;
7931;SDS011;4011;49.424;10.894;2024-02-21T23:47:36;5.63;;;2.97;;
7931;SDS011;4011;49.424;10.894;2024-02-21T23:52:57;4.53;;;2.60;;
7931;SDS011;4011;49.424;10.894;2024-02-21T23:58:19;5.05;;;2.65;;
